Winnsboro, TX (75494)

2:28 PM CST on January 19, 2017 (GMT -0600)
Winnsboro | | Change Station
Active Advisory: Flood Warning

Elev 522 ft 32.92 °N, 95.28 °W | Updated 31 seconds ago

Overcast
Overcast
55.9 °F
Feels Like 55.9 °F
N
1.3
Wind Variable Wind from South
Gusts 2.5 mph

Today
High -- | Low -- °F
--% Chance of Precip.
Yesterday
High -- | Low -- °F
Precip. -- in
Pressure 29.72 in
Visibility 10.0 miles
Clouds Overcast 600 ft
Dew Point 54 °F
Humidity 95%
Rainfall 0.01 in
Snow Depth Not available.
7:22 AM 5:41 PM
Waning Gibbous, 51% visible
METAR KJDD 192015Z AUTO 18008KT 10SM OVC006 13/12 A2972 RMK AO2
Pressure 29.72 in
Visibility 10.0 miles
Clouds Overcast 600 ft
Dew Point 54 °F
Humidity 95%
Rainfall 0.01 in
Snow Depth Not available.
7:22 AM 5:41 PM
Waning Gibbous, 51% visible
METAR KJDD 192015Z AUTO 18008KT 10SM OVC006 13/12 A2972 RMK AO2

Get Your Daily Forecast Email!

Thanks for signing up!

Be on the lookout for a verification email in your inbox.

You'll start receiving the daily forecast at 8 AM.

×

10-Day Weather Forecast

Almanac

Astronomy

Jan. 19, 2017 Rise Set
Actual Time
Civil Twilight
Nautical Twilight
Astronomical Twilight
Moon
Length of Visible Light
Length of Day
Tomorrow will be .
, % of the Moon is Illuminated

Today's Extremes

State Highs State Lows

Community

WunderPhotos

Upload Photos

1,962,540 photos uploaded!

WunderBlog® & News

Nearby

Air Quality

  Air Quality AQ Index Pollutant
Not available.

Snow Depth

Station Depth Elevation

Earthquake Activity

City Distance Mag. Time & Date
Minimum magnitude displayed is 2.5.

Coastal Water Temperatures

Place Temperature

Stations

Nearby Weather Stations

Station Location Temp. Windchill Dew Point Humidity Wind Precip. Elev Updated Type
                   

Watches & Warnings

Flood Warning
Issued: 10:15 AM CST Jan. 19, 2017 – National Weather Service

... The Flood Warning extended until Saturday evening... the Flood
Warning continues for
the Sabine River near Mineola, Texas.
* Until Saturday evening... or until the warning is cancelled.
* At 915 am Thursday the stage was 14.3 feet.
* Minor flooding is occurring and minor flooding is forecast.
* Flood stage is 14 feet.
* Forecast... the river will continue rising to near 14.4 feet by
early Thursday morning. The river will fall below flood stage
during early Saturday morning.
* Impact... at 14.0 feet... expect flooding of secondary roadways with
picnic and recreational areas flooded as well.


Lat... Lon 3278 9574 3263 9535 3257 9535 3259 9550 3273 9574


Viii.